Gogama, Canada
Current Conditions -  °F | °C
As of 4:45 AM on Sunday 26 Oct 2014 (Local Time) from CYTS Reporting Station
Light Rain Light Rain  
Wind Chill: 29°   Ceiling: 2300
Heat Index: 37°   Visibility: 12mi
Dew Point: 36°   Wind: 15mph
Humidity: 93%   Direction: 300°WNW
Pressure: 29.54"   Gusts: 25mph
Location:  47.67°N, 81.72°W
Report Text: CYTS 260845Z 30013G22KT 12SM -RA FEW008 SCT012 OVC023 03/02 A2954 RMK SF2SC2SC4 SLP013
Loading
Personal Weather Stations






























Interactive Weather Map New forecast layout! Learn more

10-Day Weather Forecast

Advertisements
Track Severe Weather on mobile